sensor_id;sensor_type;location;lat;lon;timestamp;temperature;humidity
65826;DHT22;52586;-43.152;172.732;2022-11-15T00:00:36;23.40;51.80
65826;DHT22;52586;-43.152;172.732;2022-11-15T00:03:07;23.50;51.80
65826;DHT22;52586;-43.152;172.732;2022-11-15T00:05:37;23.50;51.80
65826;DHT22;52586;-43.152;172.732;2022-11-15T00:08:08;23.50;51.80
65826;DHT22;52586;-43.152;172.732;2022-11-15T00:10:39;23.50;51.90
65826;DHT22;52586;-43.152;172.732;2022-11-15T00:13:11;23.50;52.50
65826;DHT22;52586;-43.152;172.732;2022-11-15T00:15:44;23.60;51.80
65826;DHT22;52586;-43.152;172.732;2022-11-15T00:18:16;23.60;51.70
65826;DHT22;52586;-43.152;172.732;2022-11-15T00:20:47;23.60;51.70
65826;DHT22;52586;-43.152;172.732;2022-11-15T00:23:18;23.70;51.70
65826;DHT22;52586;-43.152;172.732;2022-11-15T00:25:55;23.70;51.70
65826;DHT22;52586;-43.152;172.732;2022-11-15T00:28:27;23.70;51.70
65826;DHT22;52586;-43.152;172.732;2022-11-15T00:31:04;23.70;51.70
65826;DHT22;52586;-43.152;172.732;2022-11-15T00:33:35;23.80;51.80
65826;DHT22;52586;-43.152;172.732;2022-11-15T00:36:07;23.80;51.80
65826;DHT22;52586;-43.152;172.732;2022-11-15T00:38:39;23.80;51.80
65826;DHT22;52586;-43.152;172.732;2022-11-15T00:41:10;23.80;51.80
65826;DHT22;52586;-43.152;172.732;2022-11-15T00:43:40;23.80;51.80
65826;DHT22;52586;-43.152;172.732;2022-11-15T00:46:13;23.80;51.90
65826;DHT22;52586;-43.152;172.732;2022-11-15T00:48:44;23.80;51.80
65826;DHT22;52586;-43.152;172.732;2022-11-15T00:51:15;23.80;51.80
65826;DHT22;52586;-43.152;172.732;2022-11-15T00:53:46;23.90;51.80
65826;DHT22;52586;-43.152;172.732;2022-11-15T00:56:17;23.90;52.00
65826;DHT22;52586;-43.152;172.732;2022-11-15T00:58:48;23.90;52.00
65826;DHT22;52586;-43.152;172.732;2022-11-15T01:01:20;24.00;52.10
65826;DHT22;52586;-43.152;172.732;2022-11-15T01:03:51;24.00;52.10
65826;DHT22;52586;-43.152;172.732;2022-11-15T01:06:22;24.10;52.10
65826;DHT22;52586;-43.152;172.732;2022-11-15T01:08:52;24.10;52.10
65826;DHT22;52586;-43.152;172.732;2022-11-15T01:11:23;24.10;52.10
65826;DHT22;52586;-43.152;172.732;2022-11-15T01:13:54;24.20;52.20
65826;DHT22;52586;-43.152;172.732;2022-11-15T01:16:26;24.20;52.10
65826;DHT22;52586;-43.152;172.732;2022-11-15T01:21:37;24.20;52.10
65826;DHT22;52586;-43.152;172.732;2022-11-15T01:24:13;24.30;52.10
65826;DHT22;52586;-43.152;172.732;2022-11-15T01:26:43;24.30;52.10
65826;DHT22;52586;-43.152;172.732;2022-11-15T01:29:14;24.30;52.10
65826;DHT22;52586;-43.152;172.732;2022-11-15T01:31:47;24.30;52.00
65826;DHT22;52586;-43.152;172.732;2022-11-15T01:34:18;24.40;52.10
65826;DHT22;52586;-43.152;172.732;2022-11-15T01:36:48;24.40;52.00
65826;DHT22;52586;-43.152;172.732;2022-11-15T01:39:19;24.40;52.00
65826;DHT22;52586;-43.152;172.732;2022-11-15T01:41:50;24.50;52.00
65826;DHT22;52586;-43.152;172.732;2022-11-15T01:44:40;24.50;52.00
65826;DHT22;52586;-43.152;172.732;2022-11-15T01:47:17;24.50;52.00
65826;DHT22;52586;-43.152;172.732;2022-11-15T01:49:54;24.50;52.00
65826;DHT22;52586;-43.152;172.732;2022-11-15T01:52:27;24.60;52.00
65826;DHT22;52586;-43.152;172.732;2022-11-15T01:55:02;24.60;52.00
65826;DHT22;52586;-43.152;172.732;2022-11-15T01:57:34;24.60;52.00
65826;DHT22;52586;-43.152;172.732;2022-11-15T02:00:06;24.70;52.00
65826;DHT22;52586;-43.152;172.732;2022-11-15T02:02:39;24.70;51.90
65826;DHT22;52586;-43.152;172.732;2022-11-15T02:05:10;24.70;51.90
65826;DHT22;52586;-43.152;172.732;2022-11-15T02:07:41;24.70;51.80
65826;DHT22;52586;-43.152;172.732;2022-11-15T02:10:14;24.70;51.80
65826;DHT22;52586;-43.152;172.732;2022-11-15T02:12:47;24.80;51.70
65826;DHT22;52586;-43.152;172.732;2022-11-15T02:15:19;24.80;51.70
65826;DHT22;52586;-43.152;172.732;2022-11-15T02:18:03;24.80;51.60
65826;DHT22;52586;-43.152;172.732;2022-11-15T02:20:53;24.90;52.30
65826;DHT22;52586;-43.152;172.732;2022-11-15T02:24:05;24.90;51.60
65826;DHT22;52586;-43.152;172.732;2022-11-15T02:27:03;24.90;51.50
65826;DHT22;52586;-43.152;172.732;2022-11-15T02:29:56;24.90;51.50
65826;DHT22;52586;-43.152;172.732;2022-11-15T02:32:36;25.00;51.50
65826;DHT22;52586;-43.152;172.732;2022-11-15T02:35:15;25.00;51.30
65826;DHT22;52586;-43.152;172.732;2022-11-15T02:37:52;25.00;51.20
65826;DHT22;52586;-43.152;172.732;2022-11-15T02:40:31;25.10;51.20
65826;DHT22;52586;-43.152;172.732;2022-11-15T02:43:08;25.10;51.10
65826;DHT22;52586;-43.152;172.732;2022-11-15T02:46:00;25.10;51.00
65826;DHT22;52586;-43.152;172.732;2022-11-15T02:48:35;25.10;51.00
65826;DHT22;52586;-43.152;172.732;2022-11-15T02:51:07;25.20;51.00
65826;DHT22;52586;-43.152;172.732;2022-11-15T02:53:37;25.20;51.00
65826;DHT22;52586;-43.152;172.732;2022-11-15T02:56:10;25.20;51.00
65826;DHT22;52586;-43.152;172.732;2022-11-15T02:59:01;25.30;51.10
65826;DHT22;52586;-43.152;172.732;2022-11-15T03:01:42;25.30;51.10
65826;DHT22;52586;-43.152;172.732;2022-11-15T03:04:26;25.30;51.10
65826;DHT22;52586;-43.152;172.732;2022-11-15T03:07:04;25.30;51.00
65826;DHT22;52586;-43.152;172.732;2022-11-15T03:09:38;25.30;50.90
65826;DHT22;52586;-43.152;172.732;2022-11-15T03:12:15;25.40;50.90
65826;DHT22;52586;-43.152;172.732;2022-11-15T03:14:53;25.40;50.70
65826;DHT22;52586;-43.152;172.732;2022-11-15T03:17:28;25.50;50.60
65826;DHT22;52586;-43.152;172.732;2022-11-15T03:20:03;25.50;50.50
65826;DHT22;52586;-43.152;172.732;2022-11-15T03:22:36;25.50;50.50
65826;DHT22;52586;-43.152;172.732;2022-11-15T03:25:09;25.60;50.50
65826;DHT22;52586;-43.152;172.732;2022-11-15T03:27:43;25.60;50.50
65826;DHT22;52586;-43.152;172.732;2022-11-15T03:30:16;25.60;50.50
65826;DHT22;52586;-43.152;172.732;2022-11-15T03:32:50;25.60;50.40
65826;DHT22;52586;-43.152;172.732;2022-11-15T03:35:24;25.70;50.40
65826;DHT22;52586;-43.152;172.732;2022-11-15T03:37:59;25.70;50.40
65826;DHT22;52586;-43.152;172.732;2022-11-15T03:40:36;25.70;50.40
65826;DHT22;52586;-43.152;172.732;2022-11-15T03:43:14;25.80;50.40
65826;DHT22;52586;-43.152;172.732;2022-11-15T03:45:49;25.80;50.30
65826;DHT22;52586;-43.152;172.732;2022-11-15T03:48:22;25.80;50.30
65826;DHT22;52586;-43.152;172.732;2022-11-15T03:50:56;25.90;50.20
65826;DHT22;52586;-43.152;172.732;2022-11-15T03:53:28;25.90;50.10
65826;DHT22;52586;-43.152;172.732;2022-11-15T03:55:59;25.90;50.10
65826;DHT22;52586;-43.152;172.732;2022-11-15T03:58:31;26.00;50.10
65826;DHT22;52586;-43.152;172.732;2022-11-15T04:01:02;26.00;50.00
65826;DHT22;52586;-43.152;172.732;2022-11-15T04:03:32;26.00;50.00
65826;DHT22;52586;-43.152;172.732;2022-11-15T04:06:05;26.00;49.90
65826;DHT22;52586;-43.152;172.732;2022-11-15T04:08:36;26.10;50.00
65826;DHT22;52586;-43.152;172.732;2022-11-15T04:11:07;26.10;49.90
65826;DHT22;52586;-43.152;172.732;2022-11-15T04:13:38;26.10;49.90
65826;DHT22;52586;-43.152;172.732;2022-11-15T04:16:08;26.20;49.90
65826;DHT22;52586;-43.152;172.732;2022-11-15T04:18:39;26.20;49.90
65826;DHT22;52586;-43.152;172.732;2022-11-15T04:21:12;26.20;50.00
65826;DHT22;52586;-43.152;172.732;2022-11-15T04:23:58;26.20;49.90
65826;DHT22;52586;-43.152;172.732;2022-11-15T04:26:44;26.20;49.90
65826;DHT22;52586;-43.152;172.732;2022-11-15T04:29:15;26.30;49.90
65826;DHT22;52586;-43.152;172.732;2022-11-15T04:32:01;26.30;49.80
65826;DHT22;52586;-43.152;172.732;2022-11-15T04:34:32;26.30;49.80
65826;DHT22;52586;-43.152;172.732;2022-11-15T04:37:05;26.40;49.70
65826;DHT22;52586;-43.152;172.732;2022-11-15T04:39:42;26.40;49.70
65826;DHT22;52586;-43.152;172.732;2022-11-15T04:42:13;26.40;49.70
65826;DHT22;52586;-43.152;172.732;2022-11-15T04:44:43;26.40;49.50
65826;DHT22;52586;-43.152;172.732;2022-11-15T04:47:14;26.50;49.20
65826;DHT22;52586;-43.152;172.732;2022-11-15T04:49:46;26.50;49.40
65826;DHT22;52586;-43.152;172.732;2022-11-15T04:52:19;26.50;49.30
65826;DHT22;52586;-43.152;172.732;2022-11-15T04:54:49;26.50;49.30
65826;DHT22;52586;-43.152;172.732;2022-11-15T04:57:20;26.50;49.20
65826;DHT22;52586;-43.152;172.732;2022-11-15T04:59:51;26.50;49.20
65826;DHT22;52586;-43.152;172.732;2022-11-15T05:02:22;26.50;49.30
65826;DHT22;52586;-43.152;172.732;2022-11-15T05:05:12;26.50;49.40
65826;DHT22;52586;-43.152;172.732;2022-11-15T05:07:44;26.50;49.30
65826;DHT22;52586;-43.152;172.732;2022-11-15T05:10:14;26.50;49.30
65826;DHT22;52586;-43.152;172.732;2022-11-15T05:12:47;26.60;49.40
65826;DHT22;52586;-43.152;172.732;2022-11-15T05:15:18;26.60;49.40
65826;DHT22;52586;-43.152;172.732;2022-11-15T05:17:49;26.60;49.20
65826;DHT22;52586;-43.152;172.732;2022-11-15T05:20:19;26.60;49.70
65826;DHT22;52586;-43.152;172.732;2022-11-15T05:22:52;26.70;49.10
65826;DHT22;52586;-43.152;172.732;2022-11-15T05:25:23;26.60;49.00
65826;DHT22;52586;-43.152;172.732;2022-11-15T05:27:54;26.60;49.00
65826;DHT22;52586;-43.152;172.732;2022-11-15T05:30:25;26.70;49.00
65826;DHT22;52586;-43.152;172.732;2022-11-15T05:32:56;26.70;48.90
65826;DHT22;52586;-43.152;172.732;2022-11-15T05:35:31;26.60;48.80
65826;DHT22;52586;-43.152;172.732;2022-11-15T05:38:05;26.60;48.90
65826;DHT22;52586;-43.152;172.732;2022-11-15T05:40:35;26.60;49.00
65826;DHT22;52586;-43.152;172.732;2022-11-15T05:43:06;26.60;49.00
65826;DHT22;52586;-43.152;172.732;2022-11-15T05:45:37;26.60;49.00
65826;DHT22;52586;-43.152;172.732;2022-11-15T05:48:09;26.60;49.00
65826;DHT22;52586;-43.152;172.732;2022-11-15T05:50:42;26.60;49.00
65826;DHT22;52586;-43.152;172.732;2022-11-15T05:53:17;26.60;49.00
65826;DHT22;52586;-43.152;172.732;2022-11-15T05:55:50;26.60;49.00
65826;DHT22;52586;-43.152;172.732;2022-11-15T05:58:21;26.60;49.00
65826;DHT22;52586;-43.152;172.732;2022-11-15T06:00:52;26.60;49.00
65826;DHT22;52586;-43.152;172.732;2022-11-15T06:03:24;26.60;48.90
65826;DHT22;52586;-43.152;172.732;2022-11-15T06:05:55;26.60;48.90
65826;DHT22;52586;-43.152;172.732;2022-11-15T06:08:28;26.60;48.80
65826;DHT22;52586;-43.152;172.732;2022-11-15T06:11:04;26.60;48.80
65826;DHT22;52586;-43.152;172.732;2022-11-15T06:13:35;26.50;48.70
65826;DHT22;52586;-43.152;172.732;2022-11-15T06:16:06;26.50;48.80
65826;DHT22;52586;-43.152;172.732;2022-11-15T06:18:37;26.50;48.90
65826;DHT22;52586;-43.152;172.732;2022-11-15T06:21:08;26.50;48.90
65826;DHT22;52586;-43.152;172.732;2022-11-15T06:23:40;26.50;48.90
65826;DHT22;52586;-43.152;172.732;2022-11-15T06:26:11;26.50;48.90
65826;DHT22;52586;-43.152;172.732;2022-11-15T06:28:42;26.50;49.00
65826;DHT22;52586;-43.152;172.732;2022-11-15T06:31:13;26.40;48.80
65826;DHT22;52586;-43.152;172.732;2022-11-15T06:33:44;26.40;48.80
65826;DHT22;52586;-43.152;172.732;2022-11-15T06:36:15;26.40;48.80
65826;DHT22;52586;-43.152;172.732;2022-11-15T06:38:48;26.40;48.80
65826;DHT22;52586;-43.152;172.732;2022-11-15T06:41:18;26.40;48.80
65826;DHT22;52586;-43.152;172.732;2022-11-15T06:43:49;26.40;48.80
65826;DHT22;52586;-43.152;172.732;2022-11-15T06:46:20;26.30;48.80
65826;DHT22;52586;-43.152;172.732;2022-11-15T06:48:52;26.30;48.80
65826;DHT22;52586;-43.152;172.732;2022-11-15T06:51:23;26.30;48.70
65826;DHT22;52586;-43.152;172.732;2022-11-15T06:53:55;26.30;48.80
65826;DHT22;52586;-43.152;172.732;2022-11-15T06:56:26;26.30;48.80
65826;DHT22;52586;-43.152;172.732;2022-11-15T06:58:57;26.20;48.80
65826;DHT22;52586;-43.152;172.732;2022-11-15T07:01:27;26.20;48.90
65826;DHT22;52586;-43.152;172.732;2022-11-15T07:03:58;26.20;48.80
65826;DHT22;52586;-43.152;172.732;2022-11-15T07:06:29;26.20;48.90
65826;DHT22;52586;-43.152;172.732;2022-11-15T07:09:03;26.20;48.90
65826;DHT22;52586;-43.152;172.732;2022-11-15T07:11:34;26.20;48.90
65826;DHT22;52586;-43.152;172.732;2022-11-15T07:14:05;26.10;48.80
65826;DHT22;52586;-43.152;172.732;2022-11-15T07:16:37;26.10;48.90
65826;DHT22;52586;-43.152;172.732;2022-11-15T07:19:09;26.10;48.80
65826;DHT22;52586;-43.152;172.732;2022-11-15T07:21:41;26.10;48.90
65826;DHT22;52586;-43.152;172.732;2022-11-15T07:24:18;26.00;48.80
65826;DHT22;52586;-43.152;172.732;2022-11-15T07:26:48;26.00;48.90
65826;DHT22;52586;-43.152;172.732;2022-11-15T07:29:19;25.90;48.80
65826;DHT22;52586;-43.152;172.732;2022-11-15T07:31:51;25.90;48.90
65826;DHT22;52586;-43.152;172.732;2022-11-15T07:34:21;25.90;48.90
65826;DHT22;52586;-43.152;172.732;2022-11-15T07:36:53;25.90;48.90
65826;DHT22;52586;-43.152;172.732;2022-11-15T07:39:25;25.90;49.00
65826;DHT22;52586;-43.152;172.732;2022-11-15T07:41:56;25.80;48.90
65826;DHT22;52586;-43.152;172.732;2022-11-15T07:44:39;25.80;48.90
65826;DHT22;52586;-43.152;172.732;2022-11-15T07:47:10;25.80;48.80
65826;DHT22;52586;-43.152;172.732;2022-11-15T07:49:41;25.80;48.90
65826;DHT22;52586;-43.152;172.732;2022-11-15T07:52:15;25.70;48.90
65826;DHT22;52586;-43.152;172.732;2022-11-15T07:54:48;25.80;49.00
65826;DHT22;52586;-43.152;172.732;2022-11-15T07:57:19;25.70;48.90
65826;DHT22;52586;-43.152;172.732;2022-11-15T07:59:49;25.70;49.00
65826;DHT22;52586;-43.152;172.732;2022-11-15T08:02:21;25.60;48.90
65826;DHT22;52586;-43.152;172.732;2022-11-15T08:04:52;25.60;48.90
65826;DHT22;52586;-43.152;172.732;2022-11-15T08:07:23;25.60;49.00
65826;DHT22;52586;-43.152;172.732;2022-11-15T08:09:56;25.60;49.00
65826;DHT22;52586;-43.152;172.732;2022-11-15T08:12:28;25.60;49.00
65826;DHT22;52586;-43.152;172.732;2022-11-15T08:15:00;25.50;49.00
65826;DHT22;52586;-43.152;172.732;2022-11-15T08:17:31;25.50;48.90
65826;DHT22;52586;-43.152;172.732;2022-11-15T08:20:02;25.50;49.00
65826;DHT22;52586;-43.152;172.732;2022-11-15T08:25:06;25.50;49.00
65826;DHT22;52586;-43.152;172.732;2022-11-15T08:27:37;25.50;49.00
65826;DHT22;52586;-43.152;172.732;2022-11-15T08:30:08;25.40;49.00
65826;DHT22;52586;-43.152;172.732;2022-11-15T08:32:39;25.40;49.00
65826;DHT22;52586;-43.152;172.732;2022-11-15T08:35:10;25.40;49.00
65826;DHT22;52586;-43.152;172.732;2022-11-15T08:37:41;25.40;49.00
65826;DHT22;52586;-43.152;172.732;2022-11-15T08:40:14;25.30;49.00
65826;DHT22;52586;-43.152;172.732;2022-11-15T08:42:47;25.30;49.00
65826;DHT22;52586;-43.152;172.732;2022-11-15T08:45:18;25.30;49.00
65826;DHT22;52586;-43.152;172.732;2022-11-15T08:47:49;25.30;49.10
65826;DHT22;52586;-43.152;172.732;2022-11-15T08:50:20;25.30;49.10
65826;DHT22;52586;-43.152;172.732;2022-11-15T08:52:51;25.30;49.10
65826;DHT22;52586;-43.152;172.732;2022-11-15T08:55:24;25.30;49.10
65826;DHT22;52586;-43.152;172.732;2022-11-15T08:57:57;25.20;49.10
65826;DHT22;52586;-43.152;172.732;2022-11-15T09:00:27;25.20;49.10
65826;DHT22;52586;-43.152;172.732;2022-11-15T09:02:58;25.20;49.10
65826;DHT22;52586;-43.152;172.732;2022-11-15T09:05:29;25.10;49.10
65826;DHT22;52586;-43.152;172.732;2022-11-15T09:08:00;25.10;49.10
65826;DHT22;52586;-43.152;172.732;2022-11-15T09:10:33;25.10;49.10
65826;DHT22;52586;-43.152;172.732;2022-11-15T09:13:04;25.10;49.10
65826;DHT22;52586;-43.152;172.732;2022-11-15T09:15:35;25.10;49.20
65826;DHT22;52586;-43.152;172.732;2022-11-15T09:18:05;25.00;49.20
65826;DHT22;52586;-43.152;172.732;2022-11-15T09:20:36;25.00;49.20
65826;DHT22;52586;-43.152;172.732;2022-11-15T09:23:07;25.00;49.20
65826;DHT22;52586;-43.152;172.732;2022-11-15T09:25:39;25.00;49.20
65826;DHT22;52586;-43.152;172.732;2022-11-15T09:28:10;24.90;49.20
65826;DHT22;52586;-43.152;172.732;2022-11-15T09:30:41;24.90;49.20
65826;DHT22;52586;-43.152;172.732;2022-11-15T09:33:12;24.90;49.20
65826;DHT22;52586;-43.152;172.732;2022-11-15T09:35:43;24.90;49.20
65826;DHT22;52586;-43.152;172.732;2022-11-15T09:38:14;24.90;49.30
65826;DHT22;52586;-43.152;172.732;2022-11-15T09:40:52;24.90;49.40
65826;DHT22;52586;-43.152;172.732;2022-11-15T09:43:37;24.80;49.30
65826;DHT22;52586;-43.152;172.732;2022-11-15T09:46:14;24.80;49.40
65826;DHT22;52586;-43.152;172.732;2022-11-15T09:48:54;24.80;49.40
65826;DHT22;52586;-43.152;172.732;2022-11-15T09:51:28;24.70;49.30
65826;DHT22;52586;-43.152;172.732;2022-11-15T09:54:09;24.70;49.40
65826;DHT22;52586;-43.152;172.732;2022-11-15T09:56:43;24.70;49.40
65826;DHT22;52586;-43.152;172.732;2022-11-15T09:59:40;24.70;50.00
65826;DHT22;52586;-43.152;172.732;2022-11-15T10:02:38;24.70;49.50
65826;DHT22;52586;-43.152;172.732;2022-11-15T10:05:14;24.70;49.50
65826;DHT22;52586;-43.152;172.732;2022-11-15T10:07:51;24.60;49.40
65826;DHT22;52586;-43.152;172.732;2022-11-15T10:10:29;24.60;49.50
65826;DHT22;52586;-43.152;172.732;2022-11-15T10:13:04;24.60;49.50
65826;DHT22;52586;-43.152;172.732;2022-11-15T10:15:35;24.50;49.50
65826;DHT22;52586;-43.152;172.732;2022-11-15T10:18:19;24.50;49.50
65826;DHT22;52586;-43.152;172.732;2022-11-15T10:20:59;24.50;49.50
65826;DHT22;52586;-43.152;172.732;2022-11-15T10:23:31;24.50;49.50
65826;DHT22;52586;-43.152;172.732;2022-11-15T10:26:04;24.40;49.50
65826;DHT22;52586;-43.152;172.732;2022-11-15T10:28:40;24.50;49.60
65826;DHT22;52586;-43.152;172.732;2022-11-15T10:31:23;24.40;49.60
65826;DHT22;52586;-43.152;172.732;2022-11-15T10:33:59;24.40;49.60
65826;DHT22;52586;-43.152;172.732;2022-11-15T10:36:36;24.30;49.50
65826;DHT22;52586;-43.152;172.732;2022-11-15T10:39:10;24.30;49.50
65826;DHT22;52586;-43.152;172.732;2022-11-15T10:41:43;24.30;49.50
65826;DHT22;52586;-43.152;172.732;2022-11-15T10:44:24;24.30;49.50
65826;DHT22;52586;-43.152;172.732;2022-11-15T10:50:27;24.30;49.60
65826;DHT22;52586;-43.152;172.732;2022-11-15T10:52:59;24.20;49.60
65826;DHT22;52586;-43.152;172.732;2022-11-15T10:55:33;24.20;49.60
65826;DHT22;52586;-43.152;172.732;2022-11-15T10:58:09;24.20;49.70
65826;DHT22;52586;-43.152;172.732;2022-11-15T11:00:53;24.20;49.70
65826;DHT22;52586;-43.152;172.732;2022-11-15T11:03:34;24.20;49.70
65826;DHT22;52586;-43.152;172.732;2022-11-15T11:06:07;24.10;49.70
65826;DHT22;52586;-43.152;172.732;2022-11-15T11:08:38;24.10;49.70
65826;DHT22;52586;-43.152;172.732;2022-11-15T11:11:09;24.10;49.70
65826;DHT22;52586;-43.152;172.732;2022-11-15T11:13:40;24.10;49.70
65826;DHT22;52586;-43.152;172.732;2022-11-15T11:16:39;24.10;49.70
65826;DHT22;52586;-43.152;172.732;2022-11-15T11:19:36;24.00;49.70
65826;DHT22;52586;-43.152;172.732;2022-11-15T11:22:17;24.00;49.70
65826;DHT22;52586;-43.152;172.732;2022-11-15T11:24:58;24.00;49.70
65826;DHT22;52586;-43.152;172.732;2022-11-15T11:27:43;24.00;49.80
65826;DHT22;52586;-43.152;172.732;2022-11-15T11:30:17;24.00;49.80
65826;DHT22;52586;-43.152;172.732;2022-11-15T11:35:55;23.90;49.90
65826;DHT22;52586;-43.152;172.732;2022-11-15T11:38:50;23.80;49.80
65826;DHT22;52586;-43.152;172.732;2022-11-15T11:41:47;23.80;49.80
65826;DHT22;52586;-43.152;172.732;2022-11-15T11:44:30;23.80;49.80
65826;DHT22;52586;-43.152;172.732;2022-11-15T11:47:05;23.80;49.80
65826;DHT22;52586;-43.152;172.732;2022-11-15T11:49:43;23.80;49.80
65826;DHT22;52586;-43.152;172.732;2022-11-15T11:52:21;23.80;49.80
65826;DHT22;52586;-43.152;172.732;2022-11-15T11:54:59;23.80;49.80
65826;DHT22;52586;-43.152;172.732;2022-11-15T11:57:38;23.80;49.90
65826;DHT22;52586;-43.152;172.732;2022-11-15T12:00:17;23.70;49.90
65826;DHT22;52586;-43.152;172.732;2022-11-15T12:02:54;23.70;49.90
65826;DHT22;52586;-43.152;172.732;2022-11-15T12:05:34;23.70;49.90
65826;DHT22;52586;-43.152;172.732;2022-11-15T12:08:22;23.70;50.00
65826;DHT22;52586;-43.152;172.732;2022-11-15T12:11:00;23.60;50.00
65826;DHT22;52586;-43.152;172.732;2022-11-15T12:13:34;23.60;50.00
65826;DHT22;52586;-43.152;172.732;2022-11-15T12:16:11;23.50;50.00
65826;DHT22;52586;-43.152;172.732;2022-11-15T12:18:51;23.50;50.00
65826;DHT22;52586;-43.152;172.732;2022-11-15T12:21:31;23.50;50.00
65826;DHT22;52586;-43.152;172.732;2022-11-15T12:24:08;23.50;50.00
65826;DHT22;52586;-43.152;172.732;2022-11-15T12:26:45;23.50;50.00
65826;DHT22;52586;-43.152;172.732;2022-11-15T12:29:25;23.50;50.00
65826;DHT22;52586;-43.152;172.732;2022-11-15T12:31:57;23.50;50.00
65826;DHT22;52586;-43.152;172.732;2022-11-15T12:34:43;23.50;50.00
65826;DHT22;52586;-43.152;172.732;2022-11-15T12:37:44;23.40;50.00
65826;DHT22;52586;-43.152;172.732;2022-11-15T12:40:37;23.40;50.00
65826;DHT22;52586;-43.152;172.732;2022-11-15T12:46:25;23.40;50.20
65826;DHT22;52586;-43.152;172.732;2022-11-15T12:49:44;23.30;50.10
65826;DHT22;52586;-43.152;172.732;2022-11-15T12:52:15;23.30;50.10
65826;DHT22;52586;-43.152;172.732;2022-11-15T12:55:01;23.30;50.20
65826;DHT22;52586;-43.152;172.732;2022-11-15T12:57:42;23.30;50.20
65826;DHT22;52586;-43.152;172.732;2022-11-15T13:00:45;23.30;50.20
65826;DHT22;52586;-43.152;172.732;2022-11-15T13:03:29;23.20;50.20
65826;DHT22;52586;-43.152;172.732;2022-11-15T13:06:33;23.20;50.10
65826;DHT22;52586;-43.152;172.732;2022-11-15T13:09:01;23.20;50.10
65826;DHT22;52586;-43.152;172.732;2022-11-15T13:11:50;23.20;50.20
65826;DHT22;52586;-43.152;172.732;2022-11-15T13:14:40;23.20;50.20
65826;DHT22;52586;-43.152;172.732;2022-11-15T13:17:32;23.10;50.20
65826;DHT22;52586;-43.152;172.732;2022-11-15T13:20:30;23.10;50.30
65826;DHT22;52586;-43.152;172.732;2022-11-15T13:23:07;23.00;50.30
65826;DHT22;52586;-43.152;172.732;2022-11-15T13:26:05;23.00;50.30
65826;DHT22;52586;-43.152;172.732;2022-11-15T13:28:44;23.00;50.40
65826;DHT22;52586;-43.152;172.732;2022-11-15T13:31:33;23.00;50.40
65826;DHT22;52586;-43.152;172.732;2022-11-15T13:34:20;23.00;50.50
65826;DHT22;52586;-43.152;172.732;2022-11-15T13:36:52;22.90;50.40
65826;DHT22;52586;-43.152;172.732;2022-11-15T13:39:30;23.00;50.40
65826;DHT22;52586;-43.152;172.732;2022-11-15T13:42:01;22.90;50.40
65826;DHT22;52586;-43.152;172.732;2022-11-15T13:44:34;22.90;50.40
65826;DHT22;52586;-43.152;172.732;2022-11-15T13:47:06;22.90;50.40
65826;DHT22;52586;-43.152;172.732;2022-11-15T13:49:37;22.90;50.40
65826;DHT22;52586;-43.152;172.732;2022-11-15T13:52:10;22.90;50.50
65826;DHT22;52586;-43.152;172.732;2022-11-15T13:54:44;22.80;50.50
65826;DHT22;52586;-43.152;172.732;2022-11-15T13:57:17;22.80;50.50
65826;DHT22;52586;-43.152;172.732;2022-11-15T13:59:52;22.80;51.20
65826;DHT22;52586;-43.152;172.732;2022-11-15T14:02:30;22.80;50.60
65826;DHT22;52586;-43.152;172.732;2022-11-15T14:05:15;22.70;50.60
65826;DHT22;52586;-43.152;172.732;2022-11-15T14:07:54;22.70;50.60
65826;DHT22;52586;-43.152;172.732;2022-11-15T14:10:31;22.70;50.60
65826;DHT22;52586;-43.152;172.732;2022-11-15T14:13:02;22.70;50.60
65826;DHT22;52586;-43.152;172.732;2022-11-15T14:15:36;22.70;50.60
65826;DHT22;52586;-43.152;172.732;2022-11-15T14:18:37;22.60;50.60
65826;DHT22;52586;-43.152;172.732;2022-11-15T14:21:08;22.60;50.60
65826;DHT22;52586;-43.152;172.732;2022-11-15T14:23:39;22.60;50.70
65826;DHT22;52586;-43.152;172.732;2022-11-15T14:26:27;22.60;50.70
65826;DHT22;52586;-43.152;172.732;2022-11-15T14:31:49;22.50;50.70
65826;DHT22;52586;-43.152;172.732;2022-11-15T14:34:19;22.50;50.70
65826;DHT22;52586;-43.152;172.732;2022-11-15T14:36:51;22.40;50.70
65826;DHT22;52586;-43.152;172.732;2022-11-15T14:39:22;22.40;50.80
65826;DHT22;52586;-43.152;172.732;2022-11-15T14:41:52;22.40;50.80
65826;DHT22;52586;-43.152;172.732;2022-11-15T14:44:23;22.40;50.80
65826;DHT22;52586;-43.152;172.732;2022-11-15T14:46:56;22.40;50.80
65826;DHT22;52586;-43.152;172.732;2022-11-15T14:49:26;22.40;50.80
65826;DHT22;52586;-43.152;172.732;2022-11-15T14:51:57;22.30;50.80
65826;DHT22;52586;-43.152;172.732;2022-11-15T14:54:28;22.30;50.80
65826;DHT22;52586;-43.152;172.732;2022-11-15T14:56:58;22.30;50.90
65826;DHT22;52586;-43.152;172.732;2022-11-15T14:59:29;22.30;50.80
65826;DHT22;52586;-43.152;172.732;2022-11-15T15:02:02;22.30;50.90
65826;DHT22;52586;-43.152;172.732;2022-11-15T15:04:32;22.20;50.80
65826;DHT22;52586;-43.152;172.732;2022-11-15T15:07:03;22.20;50.90
65826;DHT22;52586;-43.152;172.732;2022-11-15T15:09:34;22.20;50.80
65826;DHT22;52586;-43.152;172.732;2022-11-15T15:12:05;22.10;50.80
65826;DHT22;52586;-43.152;172.732;2022-11-15T15:14:36;22.10;50.90
65826;DHT22;52586;-43.152;172.732;2022-11-15T15:17:09;22.10;50.90
65826;DHT22;52586;-43.152;172.732;2022-11-15T15:19:40;22.10;50.90
65826;DHT22;52586;-43.152;172.732;2022-11-15T15:22:14;22.10;50.90
65826;DHT22;52586;-43.152;172.732;2022-11-15T15:24:45;22.00;50.90
65826;DHT22;52586;-43.152;172.732;2022-11-15T15:27:16;22.00;50.90
65826;DHT22;52586;-43.152;172.732;2022-11-15T15:29:47;22.00;50.90
65826;DHT22;52586;-43.152;172.732;2022-11-15T15:32:19;22.00;50.90
65826;DHT22;52586;-43.152;172.732;2022-11-15T15:34:50;21.90;50.90
65826;DHT22;52586;-43.152;172.732;2022-11-15T15:37:24;21.90;51.50
65826;DHT22;52586;-43.152;172.732;2022-11-15T15:39:56;21.90;50.90
65826;DHT22;52586;-43.152;172.732;2022-11-15T15:42:27;21.90;50.90
65826;DHT22;52586;-43.152;172.732;2022-11-15T15:44:57;21.90;50.90
65826;DHT22;52586;-43.152;172.732;2022-11-15T15:47:30;21.80;50.80
65826;DHT22;52586;-43.152;172.732;2022-11-15T15:50:01;21.80;50.80
65826;DHT22;52586;-43.152;172.732;2022-11-15T15:52:32;21.80;50.80